バンダルスリブガワン の空港の天気 - METARとTAF

ブルネイ国際空港 ( WBSB / BWN ) - ブルネイ バンダルスリブガワン
飛行場実況気象(Metar)
観測時間05/25 18:00 +08 (05/25 10:00 UTC)
風向・風速西北西 2m/s
視程10km以上
天気現象
全天の4割程度の雲 雲底高度 460m
少しの雲 雲底高度 490m
全天の8割程度の雲 雲底高度 8530m
気温31℃
湿度75%
気圧1007hPa
METARWBSB 251000Z 30004KT 9999 TS SCT015 FEW016CB BKN280 31/26 Q1007
過去の天気等 Google飛行場航空写真 Wunderground天気予報

過去48時間のMETAR

飛行場予報(TAF)
発表時間: 5/25 13:00 +08 (5/25 05:00 UTC)
予報対象時間: 25日14時 +08 ~ 26日20時 +08
風向・風速西 5m/s
視程10km以上
全天の4割程度の雲 雲底高度 490m
少しの積乱雲 雲底高度 520m
25日14時 +08 ~ 25日15時 +08 に一時的に
視程7,000m
天気現象しゅう雨
25日19時 +08 ~ 25日21時 +08 に徐々に
風向・風速南南西 2m/s
全天の4割程度の雲 雲底高度 460m
少しの積乱雲 雲底高度 490m
TAF WBSB 250500Z 2506/2612 28010KT 9999 SCT016 FEW017CB
TEMPO 2506/2507 7000 SHRA
BECMG 2511/2513 20003KT SCT015 FEW016CB